sensor_id;sensor_type;location;lat;lon;timestamp;pressure;altitude;pressure_sealevel;temperature;humidity
36964;BME280;22878;48.616;35.326;2023-04-24T00:02:08;101051.64;;;7.42;100.00
36964;BME280;22878;48.616;35.326;2023-04-24T00:04:37;101048.66;;;7.17;100.00
36964;BME280;22878;48.616;35.326;2023-04-24T00:07:06;101047.46;;;7.28;100.00
36964;BME280;22878;48.616;35.326;2023-04-24T00:09:32;101046.98;;;7.26;100.00
36964;BME280;22878;48.616;35.326;2023-04-24T00:11:58;101047.09;;;7.24;100.00
36964;BME280;22878;48.616;35.326;2023-04-24T00:14:24;101046.19;;;7.21;100.00
36964;BME280;22878;48.616;35.326;2023-04-24T00:16:49;101042.93;;;7.18;100.00
36964;BME280;22878;48.616;35.326;2023-04-24T00:19:15;101047.30;;;7.24;100.00
36964;BME280;22878;48.616;35.326;2023-04-24T00:21:40;101052.52;;;7.02;100.00
36964;BME280;22878;48.616;35.326;2023-04-24T00:24:07;101050.89;;;7.11;100.00
36964;BME280;22878;48.616;35.326;2023-04-24T00:26:34;101051.55;;;7.22;100.00
36964;BME280;22878;48.616;35.326;2023-04-24T00:28:59;101049.61;;;7.17;100.00
36964;BME280;22878;48.616;35.326;2023-04-24T00:31:25;101051.63;;;7.18;100.00
36964;BME280;22878;48.616;35.326;2023-04-24T00:33:51;101054.70;;;7.13;100.00
36964;BME280;22878;48.616;35.326;2023-04-24T00:36:16;101053.11;;;7.09;100.00
36964;BME280;22878;48.616;35.326;2023-04-24T00:38:42;101054.54;;;7.13;100.00
36964;BME280;22878;48.616;35.326;2023-04-24T00:41:07;101054.70;;;7.17;100.00
36964;BME280;22878;48.616;35.326;2023-04-24T00:46:54;101062.69;;;7.30;100.00
36964;BME280;22878;48.616;35.326;2023-04-24T00:49:21;101061.52;;;7.25;100.00
36964;BME280;22878;48.616;35.326;2023-04-24T00:51:47;101060.86;;;7.42;100.00
36964;BME280;22878;48.616;35.326;2023-04-24T00:54:13;101063.61;;;7.51;100.00
36964;BME280;22878;48.616;35.326;2023-04-24T00:56:40;101066.43;;;7.49;100.00
36964;BME280;22878;48.616;35.326;2023-04-24T00:59:06;101068.38;;;7.50;100.00
36964;BME280;22878;48.616;35.326;2023-04-24T01:01:32;101065.83;;;7.45;100.00
36964;BME280;22878;48.616;35.326;2023-04-24T01:03:58;101063.48;;;7.50;100.00
36964;BME280;22878;48.616;35.326;2023-04-24T01:06:28;101059.04;;;7.56;100.00
36964;BME280;22878;48.616;35.326;2023-04-24T01:08:54;101061.65;;;7.64;100.00
36964;BME280;22878;48.616;35.326;2023-04-24T01:11:21;101062.05;;;7.71;100.00
36964;BME280;22878;48.616;35.326;2023-04-24T01:13:47;101060.20;;;7.79;100.00
36964;BME280;22878;48.616;35.326;2023-04-24T01:16:14;101057.13;;;7.84;100.00
36964;BME280;22878;48.616;35.326;2023-04-24T01:18:40;101056.65;;;7.91;100.00
36964;BME280;22878;48.616;35.326;2023-04-24T01:21:08;101051.17;;;7.95;100.00
36964;BME280;22878;48.616;35.326;2023-04-24T01:23:34;101055.05;;;8.02;100.00
36964;BME280;22878;48.616;35.326;2023-04-24T01:26:00;101052.67;;;8.08;100.00
36964;BME280;22878;48.616;35.326;2023-04-24T01:28:26;101052.10;;;8.07;100.00
36964;BME280;22878;48.616;35.326;2023-04-24T01:30:52;101049.54;;;8.05;100.00
36964;BME280;22878;48.616;35.326;2023-04-24T01:33:20;101045.52;;;8.23;100.00
36964;BME280;22878;48.616;35.326;2023-04-24T01:35:46;101046.27;;;8.33;100.00
36964;BME280;22878;48.616;35.326;2023-04-24T01:38:12;101042.99;;;8.33;100.00
36964;BME280;22878;48.616;35.326;2023-04-24T01:40:38;101041.84;;;8.37;100.00
36964;BME280;22878;48.616;35.326;2023-04-24T01:43:03;101041.02;;;8.38;100.00
36964;BME280;22878;48.616;35.326;2023-04-24T01:45:29;101038.39;;;8.42;100.00
36964;BME280;22878;48.616;35.326;2023-04-24T01:47:55;101037.42;;;8.51;100.00
36964;BME280;22878;48.616;35.326;2023-04-24T01:50:21;101028.30;;;8.54;100.00
36964;BME280;22878;48.616;35.326;2023-04-24T01:52:46;101028.09;;;8.54;100.00
36964;BME280;22878;48.616;35.326;2023-04-24T01:55:12;101027.46;;;8.63;100.00
36964;BME280;22878;48.616;35.326;2023-04-24T01:57:38;101027.92;;;8.72;100.00
36964;BME280;22878;48.616;35.326;2023-04-24T02:00:04;101028.88;;;8.79;100.00
36964;BME280;22878;48.616;35.326;2023-04-24T02:02:30;101030.07;;;8.85;100.00
36964;BME280;22878;48.616;35.326;2023-04-24T02:04:56;101029.14;;;8.87;100.00
36964;BME280;22878;48.616;35.326;2023-04-24T02:07:22;101028.63;;;8.85;100.00
36964;BME280;22878;48.616;35.326;2023-04-24T02:09:48;101028.56;;;8.87;100.00
36964;BME280;22878;48.616;35.326;2023-04-24T02:12:14;101024.44;;;8.91;100.00
36964;BME280;22878;48.616;35.326;2023-04-24T02:14:40;101030.64;;;8.92;100.00
36964;BME280;22878;48.616;35.326;2023-04-24T02:17:07;101037.61;;;8.92;100.00
36964;BME280;22878;48.616;35.326;2023-04-24T02:19:33;101040.74;;;8.94;100.00
36964;BME280;22878;48.616;35.326;2023-04-24T02:21:58;101043.07;;;9.00;100.00
36964;BME280;22878;48.616;35.326;2023-04-24T02:24:24;101041.36;;;9.03;100.00
36964;BME280;22878;48.616;35.326;2023-04-24T02:26:49;101041.70;;;9.10;100.00
36964;BME280;22878;48.616;35.326;2023-04-24T02:29:15;101043.46;;;9.15;100.00
36964;BME280;22878;48.616;35.326;2023-04-24T02:35:02;101040.67;;;9.26;100.00
36964;BME280;22878;48.616;35.326;2023-04-24T02:37:27;101043.04;;;9.29;100.00
36964;BME280;22878;48.616;35.326;2023-04-24T02:39:53;101042.94;;;9.32;100.00
36964;BME280;22878;48.616;35.326;2023-04-24T02:42:19;101039.71;;;9.30;100.00
36964;BME280;22878;48.616;35.326;2023-04-24T02:44:45;101045.48;;;9.37;100.00
36964;BME280;22878;48.616;35.326;2023-04-24T02:47:10;101042.80;;;9.42;100.00
36964;BME280;22878;48.616;35.326;2023-04-24T02:49:36;101043.42;;;9.41;100.00
36964;BME280;22878;48.616;35.326;2023-04-24T02:52:01;101045.86;;;9.39;100.00
36964;BME280;22878;48.616;35.326;2023-04-24T02:54:27;101043.77;;;9.42;100.00
36964;BME280;22878;48.616;35.326;2023-04-24T02:56:52;101043.52;;;9.40;100.00
36964;BME280;22878;48.616;35.326;2023-04-24T02:59:18;101045.67;;;9.41;100.00
36964;BME280;22878;48.616;35.326;2023-04-24T03:01:43;101042.25;;;9.44;100.00
36964;BME280;22878;48.616;35.326;2023-04-24T03:04:09;101047.45;;;9.49;100.00
36964;BME280;22878;48.616;35.326;2023-04-24T03:06:35;101048.45;;;9.54;100.00
36964;BME280;22878;48.616;35.326;2023-04-24T03:09:01;101047.19;;;9.59;100.00
36964;BME280;22878;48.616;35.326;2023-04-24T03:11:26;101046.83;;;9.66;100.00
36964;BME280;22878;48.616;35.326;2023-04-24T03:13:52;101047.30;;;9.74;100.00
36964;BME280;22878;48.616;35.326;2023-04-24T03:16:17;101045.81;;;9.79;100.00
36964;BME280;22878;48.616;35.326;2023-04-24T03:18:43;101044.23;;;9.84;100.00
36964;BME280;22878;48.616;35.326;2023-04-24T03:21:08;101048.27;;;9.87;100.00
36964;BME280;22878;48.616;35.326;2023-04-24T03:23:34;101046.71;;;9.90;100.00
36964;BME280;22878;48.616;35.326;2023-04-24T03:25:59;101050.92;;;9.95;100.00
36964;BME280;22878;48.616;35.326;2023-04-24T03:28:25;101051.80;;;9.98;100.00
36964;BME280;22878;48.616;35.326;2023-04-24T03:30:51;101055.73;;;10.02;100.00
36964;BME280;22878;48.616;35.326;2023-04-24T03:33:17;101058.45;;;10.10;100.00
36964;BME280;22878;48.616;35.326;2023-04-24T03:35:42;101057.36;;;10.20;100.00
36964;BME280;22878;48.616;35.326;2023-04-24T03:38:08;101058.95;;;10.27;100.00
36964;BME280;22878;48.616;35.326;2023-04-24T03:40:33;101061.64;;;10.31;100.00
36964;BME280;22878;48.616;35.326;2023-04-24T03:42:59;101060.95;;;10.35;100.00
36964;BME280;22878;48.616;35.326;2023-04-24T03:45:25;101062.19;;;10.34;100.00
36964;BME280;22878;48.616;35.326;2023-04-24T03:47:50;101059.64;;;10.33;100.00
36964;BME280;22878;48.616;35.326;2023-04-24T03:50:16;101063.56;;;10.35;100.00
36964;BME280;22878;48.616;35.326;2023-04-24T03:52:44;101061.70;;;10.38;100.00
36964;BME280;22878;48.616;35.326;2023-04-24T03:55:10;101065.23;;;10.35;100.00
36964;BME280;22878;48.616;35.326;2023-04-24T03:57:38;101066.95;;;10.35;100.00
36964;BME280;22878;48.616;35.326;2023-04-24T04:00:04;101068.50;;;10.45;100.00
36964;BME280;22878;48.616;35.326;2023-04-24T04:02:30;101073.09;;;10.62;100.00
36964;BME280;22878;48.616;35.326;2023-04-24T04:04:56;101070.81;;;10.76;100.00
36964;BME280;22878;48.616;35.326;2023-04-24T04:07:21;101073.52;;;10.84;100.00
36964;BME280;22878;48.616;35.326;2023-04-24T04:09:46;101074.30;;;11.00;100.00
36964;BME280;22878;48.616;35.326;2023-04-24T04:12:12;101071.30;;;11.14;100.00
36964;BME280;22878;48.616;35.326;2023-04-24T04:14:37;101073.05;;;11.34;100.00
36964;BME280;22878;48.616;35.326;2023-04-24T04:17:03;101071.75;;;11.51;100.00
36964;BME280;22878;48.616;35.326;2023-04-24T04:19:28;101070.48;;;11.65;100.00
36964;BME280;22878;48.616;35.326;2023-04-24T04:21:54;101072.48;;;11.86;100.00
36964;BME280;22878;48.616;35.326;2023-04-24T04:24:21;101075.29;;;12.08;100.00
36964;BME280;22878;48.616;35.326;2023-04-24T04:26:47;101076.35;;;12.28;100.00
36964;BME280;22878;48.616;35.326;2023-04-24T04:29:17;101074.82;;;12.41;100.00
36964;BME280;22878;48.616;35.326;2023-04-24T04:31:45;101074.83;;;12.58;100.00
36964;BME280;22878;48.616;35.326;2023-04-24T04:34:11;101074.77;;;12.79;100.00
36964;BME280;22878;48.616;35.326;2023-04-24T04:36:37;101080.67;;;13.01;100.00
36964;BME280;22878;48.616;35.326;2023-04-24T04:39:05;101074.95;;;13.12;100.00
36964;BME280;22878;48.616;35.326;2023-04-24T04:41:31;101073.45;;;13.28;100.00
36964;BME280;22878;48.616;35.326;2023-04-24T04:43:57;101075.58;;;14.08;100.00
36964;BME280;22878;48.616;35.326;2023-04-24T04:46:25;101074.17;;;15.44;100.00
36964;BME280;22878;48.616;35.326;2023-04-24T04:48:52;101067.30;;;16.49;100.00
36964;BME280;22878;48.616;35.326;2023-04-24T04:51:18;101067.27;;;16.78;100.00
36964;BME280;22878;48.616;35.326;2023-04-24T04:53:43;101065.89;;;17.60;100.00
36964;BME280;22878;48.616;35.326;2023-04-24T04:56:09;101070.54;;;18.19;100.00
36964;BME280;22878;48.616;35.326;2023-04-24T04:58:34;101063.89;;;18.87;100.00
36964;BME280;22878;48.616;35.326;2023-04-24T05:01:00;101068.50;;;19.90;100.00
36964;BME280;22878;48.616;35.326;2023-04-24T05:03:25;101058.73;;;20.86;100.00
36964;BME280;22878;48.616;35.326;2023-04-24T05:05:51;101059.09;;;21.63;100.00
36964;BME280;22878;48.616;35.326;2023-04-24T05:08:16;101056.45;;;22.47;96.97
36964;BME280;22878;48.616;35.326;2023-04-24T05:10:42;101058.03;;;23.45;88.27
36964;BME280;22878;48.616;35.326;2023-04-24T05:13:07;101053.88;;;24.08;78.53
36964;BME280;22878;48.616;35.326;2023-04-24T05:15:33;101049.98;;;24.59;71.67
36964;BME280;22878;48.616;35.326;2023-04-24T05:17:59;101047.66;;;25.10;68.37
36964;BME280;22878;48.616;35.326;2023-04-24T05:20:25;101044.70;;;25.68;64.75
36964;BME280;22878;48.616;35.326;2023-04-24T05:22:51;101042.41;;;26.25;63.48
36964;BME280;22878;48.616;35.326;2023-04-24T05:25:16;101039.89;;;27.17;63.90
36964;BME280;22878;48.616;35.326;2023-04-24T05:27:42;101038.91;;;27.84;58.32
36964;BME280;22878;48.616;35.326;2023-04-24T05:30:08;101036.09;;;28.25;53.53
36964;BME280;22878;48.616;35.326;2023-04-24T05:32:34;101032.31;;;28.31;50.97
36964;BME280;22878;48.616;35.326;2023-04-24T05:35:00;101028.91;;;28.44;51.11
36964;BME280;22878;48.616;35.326;2023-04-24T05:37:26;101028.90;;;28.43;50.06
36964;BME280;22878;48.616;35.326;2023-04-24T05:39:52;101026.17;;;28.61;49.22
36964;BME280;22878;48.616;35.326;2023-04-24T05:42:18;101028.23;;;28.42;46.49
36964;BME280;22878;48.616;35.326;2023-04-24T05:44:44;101031.64;;;28.19;46.25
36964;BME280;22878;48.616;35.326;2023-04-24T05:47:09;101030.48;;;27.90;45.28
36964;BME280;22878;48.616;35.326;2023-04-24T05:49:35;101026.00;;;27.79;45.09
36964;BME280;22878;48.616;35.326;2023-04-24T05:52:01;101022.50;;;28.09;47.00
36964;BME280;22878;48.616;35.326;2023-04-24T05:54:29;101016.67;;;28.77;45.09
36964;BME280;22878;48.616;35.326;2023-04-24T05:56:55;101010.05;;;29.30;43.49
36964;BME280;22878;48.616;35.326;2023-04-24T05:59:21;101009.55;;;29.35;44.30
36964;BME280;22878;48.616;35.326;2023-04-24T06:01:46;101011.42;;;30.03;43.52
36964;BME280;22878;48.616;35.326;2023-04-24T06:04:12;101007.50;;;30.73;41.13
36964;BME280;22878;48.616;35.326;2023-04-24T06:06:41;101011.05;;;30.61;38.41
36964;BME280;22878;48.616;35.326;2023-04-24T06:09:06;101016.71;;;30.41;39.99
36964;BME280;22878;48.616;35.326;2023-04-24T06:11:32;101011.30;;;30.83;38.80
36964;BME280;22878;48.616;35.326;2023-04-24T06:13:58;101009.66;;;30.86;38.89
36964;BME280;22878;48.616;35.326;2023-04-24T06:16:23;101010.17;;;31.09;38.72
36964;BME280;22878;48.616;35.326;2023-04-24T06:18:49;101012.65;;;31.71;38.37
36964;BME280;22878;48.616;35.326;2023-04-24T06:21:16;101014.55;;;31.42;35.66
36964;BME280;22878;48.616;35.326;2023-04-24T06:23:42;101011.12;;;30.91;37.26
36964;BME280;22878;48.616;35.326;2023-04-24T06:26:07;101015.08;;;31.37;36.94
36964;BME280;22878;48.616;35.326;2023-04-24T06:28:33;101020.20;;;31.42;35.03
36964;BME280;22878;48.616;35.326;2023-04-24T06:30:58;101018.92;;;30.94;34.86
36964;BME280;22878;48.616;35.326;2023-04-24T06:33:24;101017.91;;;30.52;35.61
36964;BME280;22878;48.616;35.326;2023-04-24T06:35:50;101021.77;;;30.21;34.99
36964;BME280;22878;48.616;35.326;2023-04-24T06:38:15;101022.55;;;29.94;35.32
36964;BME280;22878;48.616;35.326;2023-04-24T06:40:41;101021.45;;;29.47;36.41
36964;BME280;22878;48.616;35.326;2023-04-24T06:43:06;101021.10;;;29.77;36.17
36964;BME280;22878;48.616;35.326;2023-04-24T06:45:32;101023.45;;;29.47;35.57
36964;BME280;22878;48.616;35.326;2023-04-24T06:47:58;101021.82;;;29.73;38.03
36964;BME280;22878;48.616;35.326;2023-04-24T06:50:24;101021.41;;;30.30;35.86
36964;BME280;22878;48.616;35.326;2023-04-24T06:52:49;101028.61;;;30.20;35.36
36964;BME280;22878;48.616;35.326;2023-04-24T06:55:15;101029.42;;;29.33;35.95
36964;BME280;22878;48.616;35.326;2023-04-24T06:57:42;101030.08;;;29.15;36.96
36964;BME280;22878;48.616;35.326;2023-04-24T07:00:09;101034.16;;;28.86;36.83
36964;BME280;22878;48.616;35.326;2023-04-24T07:02:35;101031.13;;;29.11;37.55
36964;BME280;22878;48.616;35.326;2023-04-24T07:05:01;101034.02;;;29.56;37.38
36964;BME280;22878;48.616;35.326;2023-04-24T07:07:27;101031.69;;;30.57;37.04
36964;BME280;22878;48.616;35.326;2023-04-24T07:09:53;101034.22;;;31.69;36.58
36964;BME280;22878;48.616;35.326;2023-04-24T07:12:19;101034.05;;;31.91;34.38
36964;BME280;22878;48.616;35.326;2023-04-24T07:14:47;101028.60;;;32.09;34.44
36964;BME280;22878;48.616;35.326;2023-04-24T07:17:12;101029.39;;;32.02;33.75
36964;BME280;22878;48.616;35.326;2023-04-24T07:19:38;101025.06;;;31.44;34.17
36964;BME280;22878;48.616;35.326;2023-04-24T07:22:04;101021.50;;;31.50;34.76
36964;BME280;22878;48.616;35.326;2023-04-24T07:24:30;101019.77;;;32.39;35.33
36964;BME280;22878;48.616;35.326;2023-04-24T07:26:57;101012.34;;;33.28;34.11
36964;BME280;22878;48.616;35.326;2023-04-24T07:29:23;101005.95;;;33.92;33.64
36964;BME280;22878;48.616;35.326;2023-04-24T07:31:49;101007.73;;;34.11;31.94
36964;BME280;22878;48.616;35.326;2023-04-24T07:34:14;101008.41;;;33.32;31.50
36964;BME280;22878;48.616;35.326;2023-04-24T07:36:41;101010.11;;;32.59;31.79
36964;BME280;22878;48.616;35.326;2023-04-24T07:39:06;101003.05;;;31.83;32.54
36964;BME280;22878;48.616;35.326;2023-04-24T07:41:33;100996.67;;;31.14;33.55
36964;BME280;22878;48.616;35.326;2023-04-24T07:43:59;100997.40;;;30.32;33.87
36964;BME280;22878;48.616;35.326;2023-04-24T07:46:24;100997.82;;;30.00;34.55
36964;BME280;22878;48.616;35.326;2023-04-24T07:48:50;101002.05;;;30.10;35.50
36964;BME280;22878;48.616;35.326;2023-04-24T07:51:16;100995.86;;;30.99;34.98
36964;BME280;22878;48.616;35.326;2023-04-24T07:53:43;101000.02;;;31.33;33.56
36964;BME280;22878;48.616;35.326;2023-04-24T07:56:08;100994.94;;;31.17;33.52
36964;BME280;22878;48.616;35.326;2023-04-24T07:58:34;100993.61;;;31.21;34.85
36964;BME280;22878;48.616;35.326;2023-04-24T08:01:00;100994.05;;;31.51;33.05
36964;BME280;22878;48.616;35.326;2023-04-24T08:03:25;100994.52;;;31.46;32.36
36964;BME280;22878;48.616;35.326;2023-04-24T08:05:51;100993.55;;;30.90;33.21
36964;BME280;22878;48.616;35.326;2023-04-24T08:08:17;100990.33;;;31.37;32.80
36964;BME280;22878;48.616;35.326;2023-04-24T08:10:43;100987.33;;;31.67;32.47
36964;BME280;22878;48.616;35.326;2023-04-24T08:13:08;100982.16;;;31.66;31.88
36964;BME280;22878;48.616;35.326;2023-04-24T08:15:34;100979.30;;;31.39;32.37
36964;BME280;22878;48.616;35.326;2023-04-24T08:18:00;100971.47;;;31.34;32.97
36964;BME280;22878;48.616;35.326;2023-04-24T08:20:25;100971.73;;;31.41;31.37
36964;BME280;22878;48.616;35.326;2023-04-24T08:22:51;100969.80;;;30.98;32.03
36964;BME280;22878;48.616;35.326;2023-04-24T08:25:17;100969.11;;;30.89;32.09
36964;BME280;22878;48.616;35.326;2023-04-24T08:27:43;100966.00;;;30.76;32.29
36964;BME280;22878;48.616;35.326;2023-04-24T08:30:09;100966.14;;;31.44;32.45
36964;BME280;22878;48.616;35.326;2023-04-24T08:32:36;100964.70;;;32.26;31.79
36964;BME280;22878;48.616;35.326;2023-04-24T08:35:02;100964.94;;;32.46;31.05
36964;BME280;22878;48.616;35.326;2023-04-24T08:37:28;100961.67;;;32.23;30.98
36964;BME280;22878;48.616;35.326;2023-04-24T08:39:54;100957.67;;;31.56;30.84
36964;BME280;22878;48.616;35.326;2023-04-24T08:42:20;100953.64;;;30.67;32.17
36964;BME280;22878;48.616;35.326;2023-04-24T08:44:48;100950.63;;;30.71;32.87
36964;BME280;22878;48.616;35.326;2023-04-24T08:47:14;100943.45;;;31.14;31.82
36964;BME280;22878;48.616;35.326;2023-04-24T08:49:40;100937.80;;;29.63;32.22
36964;BME280;22878;48.616;35.326;2023-04-24T08:52:06;100940.95;;;29.23;33.88
36964;BME280;22878;48.616;35.326;2023-04-24T08:54:33;100938.70;;;29.97;33.78
36964;BME280;22878;48.616;35.326;2023-04-24T08:57:00;100941.42;;;30.47;32.45
36964;BME280;22878;48.616;35.326;2023-04-24T08:59:27;100945.82;;;30.77;31.70
36964;BME280;22878;48.616;35.326;2023-04-24T09:01:53;100947.45;;;30.06;32.13
36964;BME280;22878;48.616;35.326;2023-04-24T09:04:20;100944.27;;;29.57;32.51
36964;BME280;22878;48.616;35.326;2023-04-24T09:06:48;100936.19;;;29.36;33.29
36964;BME280;22878;48.616;35.326;2023-04-24T09:09:16;100931.81;;;29.65;33.70
36964;BME280;22878;48.616;35.326;2023-04-24T09:11:42;100929.00;;;30.13;34.12
36964;BME280;22878;48.616;35.326;2023-04-24T09:14:09;100928.56;;;30.18;32.61
36964;BME280;22878;48.616;35.326;2023-04-24T09:16:35;100933.87;;;29.29;33.12
36964;BME280;22878;48.616;35.326;2023-04-24T09:19:01;100937.28;;;28.43;33.62
36964;BME280;22878;48.616;35.326;2023-04-24T09:21:32;100939.35;;;27.63;34.99
36964;BME280;22878;48.616;35.326;2023-04-24T09:24:00;100931.34;;;28.07;36.15
36964;BME280;22878;48.616;35.326;2023-04-24T09:26:29;100929.40;;;28.94;35.06
36964;BME280;22878;48.616;35.326;2023-04-24T09:28:57;100923.19;;;29.09;34.74
36964;BME280;22878;48.616;35.326;2023-04-24T09:31:22;100927.48;;;28.87;34.50
36964;BME280;22878;48.616;35.326;2023-04-24T09:34:02;100929.81;;;28.55;33.83
36964;BME280;22878;48.616;35.326;2023-04-24T09:36:33;100926.98;;;28.01;34.90
36964;BME280;22878;48.616;35.326;2023-04-24T09:39:03;100931.92;;;27.38;35.58
36964;BME280;22878;48.616;35.326;2023-04-24T09:41:31;100928.99;;;26.74;36.40
36964;BME280;22878;48.616;35.326;2023-04-24T09:44:01;100928.89;;;26.36;36.73
36964;BME280;22878;48.616;35.326;2023-04-24T09:46:38;100921.69;;;26.58;37.45
36964;BME280;22878;48.616;35.326;2023-04-24T09:49:14;100923.26;;;26.48;36.45
36964;BME280;22878;48.616;35.326;2023-04-24T09:51:41;100922.39;;;26.02;36.95
36964;BME280;22878;48.616;35.326;2023-04-24T09:54:20;100920.48;;;25.30;38.13
36964;BME280;22878;48.616;35.326;2023-04-24T09:56:50;100920.11;;;24.61;39.24
36964;BME280;22878;48.616;35.326;2023-04-24T09:59:18;100919.17;;;24.17;39.92
36964;BME280;22878;48.616;35.326;2023-04-24T10:01:44;100917.83;;;23.98;40.13
36964;BME280;22878;48.616;35.326;2023-04-24T10:04:20;100912.98;;;24.13;40.69
36964;BME280;22878;48.616;35.326;2023-04-24T10:06:48;100911.12;;;24.53;40.38
36964;BME280;22878;48.616;35.326;2023-04-24T10:09:21;100911.10;;;24.38;39.50
36964;BME280;22878;48.616;35.326;2023-04-24T10:11:49;100916.94;;;23.85;40.20
36964;BME280;22878;48.616;35.326;2023-04-24T10:14:20;100920.05;;;23.55;40.42
36964;BME280;22878;48.616;35.326;2023-04-24T10:16:46;100914.77;;;23.64;41.43
36964;BME280;22878;48.616;35.326;2023-04-24T10:19:16;100913.38;;;23.83;40.45
36964;BME280;22878;48.616;35.326;2023-04-24T10:21:46;100914.79;;;23.60;40.39
36964;BME280;22878;48.616;35.326;2023-04-24T10:24:17;100909.28;;;23.44;40.39
36964;BME280;22878;48.616;35.326;2023-04-24T10:26:44;100904.39;;;23.25;40.61
36964;BME280;22878;48.616;35.326;2023-04-24T10:29:11;100900.06;;;23.14;40.96
36964;BME280;22878;48.616;35.326;2023-04-24T10:31:38;100904.36;;;22.91;41.58
36964;BME280;22878;48.616;35.326;2023-04-24T10:34:07;100901.16;;;22.90;41.73
36964;BME280;22878;48.616;35.326;2023-04-24T10:36:34;100895.95;;;23.27;41.61
36964;BME280;22878;48.616;35.326;2023-04-24T10:39:03;100891.84;;;23.60;41.79
36964;BME280;22878;48.616;35.326;2023-04-24T10:41:31;100894.55;;;23.48;41.85
36964;BME280;22878;48.616;35.326;2023-04-24T10:44:15;100896.61;;;23.16;41.50
36964;BME280;22878;48.616;35.326;2023-04-24T10:46:45;100897.15;;;22.50;41.98
36964;BME280;22878;48.616;35.326;2023-04-24T10:49:13;100896.15;;;22.30;42.57
36964;BME280;22878;48.616;35.326;2023-04-24T10:54:28;100890.08;;;23.06;42.90
36964;BME280;22878;48.616;35.326;2023-04-24T10:59:46;100887.02;;;23.46;41.94
36964;BME280;22878;48.616;35.326;2023-04-24T11:02:16;100882.20;;;23.70;41.81
36964;BME280;22878;48.616;35.326;2023-04-24T11:04:42;100881.17;;;24.08;42.13
36964;BME280;22878;48.616;35.326;2023-04-24T11:07:11;100877.98;;;24.09;40.79
36964;BME280;22878;48.616;35.326;2023-04-24T11:09:37;100878.41;;;23.83;42.36
36964;BME280;22878;48.616;35.326;2023-04-24T11:12:09;100882.58;;;23.99;42.09
36964;BME280;22878;48.616;35.326;2023-04-24T11:17:31;100877.09;;;24.10;41.27
36964;BME280;22878;48.616;35.326;2023-04-24T11:20:04;100873.83;;;24.19;40.49
36964;BME280;22878;48.616;35.326;2023-04-24T11:22:33;100873.81;;;23.91;40.47
36964;BME280;22878;48.616;35.326;2023-04-24T11:25:01;100875.98;;;23.86;40.96
36964;BME280;22878;48.616;35.326;2023-04-24T11:27:39;100872.41;;;23.73;40.67
36964;BME280;22878;48.616;35.326;2023-04-24T11:30:06;100875.99;;;23.39;40.66
36964;BME280;22878;48.616;35.326;2023-04-24T11:32:38;100874.38;;;23.02;40.13
36964;BME280;22878;48.616;35.326;2023-04-24T11:37:38;100871.86;;;23.06;41.02
36964;BME280;22878;48.616;35.326;2023-04-24T11:40:06;100870.64;;;23.16;40.70
36964;BME280;22878;48.616;35.326;2023-04-24T11:42:36;100871.08;;;22.85;41.44
36964;BME280;22878;48.616;35.326;2023-04-24T11:45:07;100867.45;;;23.01;41.09
36964;BME280;22878;48.616;35.326;2023-04-24T11:47:33;100862.02;;;23.14;41.18
36964;BME280;22878;48.616;35.326;2023-04-24T11:49:59;100862.71;;;23.25;40.93
36964;BME280;22878;48.616;35.326;2023-04-24T11:52:26;100853.01;;;23.55;40.57
36964;BME280;22878;48.616;35.326;2023-04-24T11:54:52;100853.39;;;24.00;40.55
36964;BME280;22878;48.616;35.326;2023-04-24T11:57:21;100850.59;;;23.88;39.79
36964;BME280;22878;48.616;35.326;2023-04-24T11:59:48;100847.92;;;23.49;40.22
36964;BME280;22878;48.616;35.326;2023-04-24T12:02:23;100845.04;;;23.50;41.84
36964;BME280;22878;48.616;35.326;2023-04-24T12:04:49;100837.39;;;24.01;41.03
36964;BME280;22878;48.616;35.326;2023-04-24T12:07:14;100833.46;;;24.09;38.79
36964;BME280;22878;48.616;35.326;2023-04-24T12:09:56;100830.77;;;23.71;39.55
36964;BME280;22878;48.616;35.326;2023-04-24T12:12:24;100830.73;;;24.00;40.02
36964;BME280;22878;48.616;35.326;2023-04-24T12:14:56;100827.79;;;24.50;39.30
36964;BME280;22878;48.616;35.326;2023-04-24T12:17:30;100824.16;;;24.71;38.36
36964;BME280;22878;48.616;35.326;2023-04-24T12:20:03;100816.63;;;24.40;38.64
36964;BME280;22878;48.616;35.326;2023-04-24T12:22:46;100815.96;;;24.34;38.83
36964;BME280;22878;48.616;35.326;2023-04-24T12:25:16;100817.43;;;23.85;39.34
36964;BME280;22878;48.616;35.326;2023-04-24T12:27:43;100814.64;;;23.30;40.37
36964;BME280;22878;48.616;35.326;2023-04-24T12:30:13;100820.48;;;22.65;42.40
36964;BME280;22878;48.616;35.326;2023-04-24T12:32:45;100820.28;;;22.35;42.57
36964;BME280;22878;48.616;35.326;2023-04-24T12:35:11;100820.70;;;22.15;42.72
36964;BME280;22878;48.616;35.326;2023-04-24T12:37:37;100822.41;;;21.94;42.08
36964;BME280;22878;48.616;35.326;2023-04-24T12:42:31;100821.18;;;21.52;42.09
36964;BME280;22878;48.616;35.326;2023-04-24T12:45:05;100817.67;;;21.32;42.24
36964;BME280;22878;48.616;35.326;2023-04-24T12:47:32;100815.27;;;21.43;42.58
36964;BME280;22878;48.616;35.326;2023-04-24T12:49:59;100812.23;;;21.52;42.01
36964;BME280;22878;48.616;35.326;2023-04-24T12:52:28;100808.34;;;21.67;42.28
36964;BME280;22878;48.616;35.326;2023-04-24T12:54:57;100804.53;;;22.04;41.99
36964;BME280;22878;48.616;35.326;2023-04-24T12:57:24;100802.88;;;22.35;41.76